UMU weather

Umuarama Airport
Umuarama, ParanĂ¡, Brazil

Public forecast

Using degrees Celsius for public forecast. Weather courtesy of forecast.io.

Closest aviation weather report (METAR) to Umuarama Airport

Report is more than 6 hours old.

Closest report is Salto del Guaira Airport, 58.6 nm (108.6 km) WSW. Retrieved 2020/06/11 15:00 UTC (1 month ago):

SGGR 111500Z 36010KT CAVOK 30/26 Q1011

Closest aviation forecast (TAF) to Umuarama Airport

Forecast is more than 12 hours old.

Closest forecast is Toledo Airport, 57.3 nm (106.1 km) SSW. Retrieved 2020-07-10 00:05 UTC (2 days ago):

TAF SBTD 092100Z 1000/1012 03005KT 9999 SCT015 TN07/1006Z TX10/1012Z PROB40 1002/1006 3000 BR RMK PCO